Weather at Ercan International Airport

Public forecast

Using degrees Celsius for public forecast. Weather courtesy of forecast.io.

Current aviation weather report (METAR) for Ercan International Airport

Retrieved 2020/11/28 08:20 UTC (0 seconds ago):

LCEN 280820Z 08011KT 9999 FEW025CB SCT030 18/10 Q1019 NOSIG RMK RWY11 09010KT

Aviation forecast (TAF) for Ercan International Airport

Retrieved 2020/11/28 06:03 UTC (2 hours ago):

TAF TAF LCEN 280440Z 2806/2906 06012KT 9999 SCT030 BKN080 TEMPO 2809/2812 5000 TSRA FEW025CB BKN030 BKN080